South End, Vermont
Current Conditions -  °F | °C
As of 11:15 AM on Thursday 23 Oct 2014 (Local Time) from KRUT Reporting Station
Overcast Overcast  
Wind Chill: 38°   Ceiling: 500
Heat Index: 43°   Visibility: 8mi
Dew Point: 39°   Wind: 8mph
Humidity: 87%   Direction: 330°NNW
Pressure: 29.87"   Gusts: NA
Location:  43.3492°N, 72.9643°W
Report Text: KRUT 231515Z 33007KT 8SM OVC005 06/04 A2987 RMK AO1
Loading
Personal Weather Stations






























Interactive Weather Map
Tropical Storm Tracking
New forecast layout! Learn more

10-Day Weather Forecast

Advertisements
Track Severe Weather on mobile